Notre Dame, Indiana
Current Conditions -  °F | °C
As of 7:54 PM on Wednesday 22 Oct 2014 (Local Time) from KSBN Reporting Station
Clear Clear  
Wind Chill: 48°   Ceiling: Unl
Heat Index: 48°   Visibility: 10mi
Dew Point: 38°   Wind: 0mph
Humidity: 68%   Direction: NA
Pressure: 30.3"   Gusts: NA
Location:  41.72°N, 86.25°W
Report Text: KSBN 222354Z 00000KT 10SM CLR 09/03 A3030 RMK AO2 SLP265 T00890033 10139 20089 55001
Loading
Personal Weather Stations






























Interactive Weather Map
Tropical Storm Tracking
New forecast layout! Learn more

10-Day Weather Forecast

Advertisements
Track Severe Weather on mobile